Time;durP1;ratioP1;P1;durP2;ratioP2;P2;SDS_P1;SDS_P2;PMS_P1;PMS_P2;Temp;Humidity;BMP_temperature;BMP_pressure;BME280_temperature;BME280_humidity;BME280_pressure;Samples;Min_cycle;Max_cycle;Signal;HPM_P1;HPM_P2
2022/03/06 00:02:23;;;;;;;5.53;1.80;;;;;;;16.68;22.81;99410.28;5034878;28;20689;-70
2022/03/06 00:04:48;;;;;;;2.38;1.50;;;;;;;16.74;22.66;99400.75;5032632;28;20029;-71
2022/03/06 00:07:14;;;;;;;2.88;2.13;;;;;;;16.87;22.59;99410.94;5031238;28;20037;-69
2022/03/06 00:09:39;;;;;;;3.63;1.75;;;;;;;16.93;22.49;99404.97;5032479;28;20452;-70
2022/03/06 00:12:05;;;;;;;3.13;2.10;;;;;;;16.98;22.54;99405.34;5032195;28;20083;-71
2022/03/06 00:14:31;;;;;;;3.00;1.95;;;;;;;17.02;22.40;99409.34;5032586;28;20029;-68
2022/03/06 00:16:56;;;;;;;3.28;1.92;;;;;;;17.02;22.38;99406.66;5031876;28;20389;-69
2022/03/06 00:19:22;;;;;;;3.20;2.22;;;;;;;17.06;22.18;99407.16;5031839;28;20025;-68
2022/03/06 00:21:48;;;;;;;2.90;1.77;;;;;;;17.05;22.33;99403.66;5032020;28;20033;-68
2022/03/06 00:24:13;;;;;;;3.35;1.92;;;;;;;17.08;22.30;99395.31;5040350;28;20511;-69
2022/03/06 00:26:39;;;;;;;2.45;1.90;;;;;;;17.11;22.02;99406.69;5050339;28;20522;-68
2022/03/06 00:29:05;;;;;;;5.25;1.80;;;;;;;17.17;22.37;99403.31;5037164;28;20485;-68
2022/03/06 00:31:31;;;;;;;4.22;2.00;;;;;;;17.21;22.16;99394.78;5032349;28;20052;-71
2022/03/06 00:33:56;;;;;;;3.33;1.90;;;;;;;17.25;22.06;99392.63;5035686;28;20384;-70
2022/03/06 00:36:22;;;;;;;2.63;2.10;;;;;;;17.24;22.00;99393.66;5048272;28;20029;-71
2022/03/06 00:38:48;;;;;;;3.80;2.00;;;;;;;17.29;22.06;99396.63;5050196;28;20021;-71
2022/03/06 00:41:14;;;;;;;2.65;2.15;;;;;;;17.30;22.01;99398.31;5051315;28;20033;-72
2022/03/06 00:43:40;;;;;;;2.88;2.13;;;;;;;17.31;21.86;99393.81;5040692;28;20127;-73
2022/03/06 00:46:06;;;;;;;3.42;2.15;;;;;;;17.34;21.97;99391.63;5032594;28;20059;-74
2022/03/06 00:48:31;;;;;;;4.05;2.08;;;;;;;17.39;22.14;99393.78;5026037;28;20042;-71
2022/03/06 00:50:57;;;;;;;2.90;1.85;;;;;;;17.37;21.83;99393.97;5016050;28;20041;-72
2022/03/06 00:53:23;;;;;;;2.83;1.95;;;;;;;17.39;21.64;99391.09;5032629;28;20025;-71
2022/03/06 00:55:48;;;;;;;3.90;2.28;;;;;;;17.41;21.69;99399.81;5054960;28;20032;-70
2022/03/06 00:58:14;;;;;;;2.58;1.77;;;;;;;17.41;21.60;99388.28;5035473;28;20033;-72
2022/03/06 01:00:42;;;;;;;3.72;1.95;;;;;;;17.43;21.99;99394.28;5035908;28;20033;-72
2022/03/06 01:03:10;;;;;;;3.00;2.08;;;;;;;17.44;21.70;99387.91;5036918;28;20119;-71
2022/03/06 01:05:36;;;;;;;3.58;2.05;;;;;;;17.45;22.00;99389.59;5035536;28;20034;-71
2022/03/06 01:08:03;;;;;;;5.07;2.45;;;;;;;17.47;22.05;99388.44;5034675;28;20056;-71
2022/03/06 01:10:29;;;;;;;2.85;2.03;;;;;;;17.51;22.06;99386.25;5035409;28;20156;-70
2022/03/06 01:12:54;;;;;;;3.03;2.15;;;;;;;17.52;21.59;99377.22;5035552;28;20543;-70
2022/03/06 01:15:20;;;;;;;3.15;1.83;;;;;;;17.56;21.92;99381.25;5035702;28;20044;-74
2022/03/06 01:17:46;;;;;;;2.70;1.98;;;;;;;17.56;22.04;99367.88;5038056;28;20021;-68
2022/03/06 01:20:11;;;;;;;4.03;2.00;;;;;;;17.64;21.60;99370.50;5035164;28;20041;-74
2022/03/06 01:22:37;;;;;;;4.07;2.25;;;;;;;17.66;21.67;99367.66;5040040;28;20048;-74
2022/03/06 01:25:05;;;;;;;2.92;1.95;;;;;;;17.68;21.44;99374.53;5035786;28;20048;-70
2022/03/06 01:38:12;;;;;;;3.33;2.10;;;;;;;17.34;21.93;99372.06;5174705;27;20216;-70
2022/03/06 01:40:38;;;;;;;4.00;2.30;;;;;;;17.43;21.95;99376.41;5169642;27;20443;-73
2022/03/06 01:43:03;;;;;;;3.60;2.38;;;;;;;17.44;21.93;99372.72;5141049;27;20084;-74
2022/03/06 01:45:29;;;;;;;3.95;2.50;;;;;;;17.49;21.91;99383.75;5162706;27;20042;-74
2022/03/06 01:47:56;;;;;;;5.07;2.20;;;;;;;17.51;21.94;99386.25;5171344;27;20022;-68
2022/03/06 01:50:23;;;;;;;3.50;2.40;;;;;;;17.57;21.52;99376.72;5167443;27;20055;-73
2022/03/06 01:52:51;;;;;;;4.00;2.40;;;;;;;17.58;21.58;99373.84;5169366;27;20034;-72
2022/03/06 01:55:18;;;;;;;4.85;2.75;;;;;;;17.53;21.63;99366.34;5171446;27;20109;-74
2022/03/06 01:57:45;;;;;;;3.75;2.35;;;;;;;17.51;21.73;99372.88;5170948;27;20038;-75
2022/03/06 02:00:17;;;;;;;2.22;1.70;;;;;;;17.53;21.66;99365.53;5171277;27;20026;-74
2022/03/06 02:02:43;;;;;;;3.88;2.40;;;;;;;17.50;21.41;99376.56;5171547;27;20026;-75
2022/03/06 02:05:09;;;;;;;2.20;1.65;;;;;;;17.44;21.42;99364.69;5165895;27;20039;-74
2022/03/06 02:07:35;;;;;;;2.80;1.98;;;;;;;17.41;21.74;99361.53;5167480;27;20067;-74
2022/03/06 02:10:02;;;;;;;3.40;1.85;;;;;;;17.42;21.51;99368.56;5169881;27;20037;-74
2022/03/06 02:12:28;;;;;;;3.20;1.95;;;;;;;17.39;21.30;99370.56;5166695;27;20445;-71
2022/03/06 02:14:56;;;;;;;3.05;2.20;;;;;;;17.41;21.45;99358.88;5168788;27;20061;-73
2022/03/06 02:17:23;;;;;;;3.05;2.08;;;;;;;17.42;21.57;99363.22;5162484;27;20019;-73
2022/03/06 02:19:52;;;;;;;3.20;2.25;;;;;;;17.46;21.34;99361.84;5169602;27;20022;-73
2022/03/06 02:22:21;;;;;;;3.60;2.17;;;;;;;17.43;21.38;99352.34;5164959;27;20034;-73
2022/03/06 02:24:47;;;;;;;3.00;2.10;;;;;;;17.38;21.68;99352.00;5150079;27;20393;-74
2022/03/06 02:27:13;;;;;;;4.60;2.40;;;;;;;17.38;21.70;99357.34;5164464;27;20075;-73
2022/03/06 02:29:43;;;;;;;3.17;2.05;;;;;;;17.33;21.39;99349.84;5135780;27;20038;-73
2022/03/06 02:32:13;;;;;;;3.20;1.88;;;;;;;17.33;21.42;99354.38;5168565;27;20389;-73
2022/03/06 02:34:41;;;;;;;2.72;1.83;;;;;;;17.30;21.43;99344.00;5166439;27;20022;-73
2022/03/06 02:37:07;;;;;;;3.25;2.38;;;;;;;17.31;21.17;99345.66;5163551;27;20038;-73
2022/03/06 02:39:33;;;;;;;3.00;1.90;;;;;;;17.36;21.57;99346.81;5161922;27;20030;-74
2022/03/06 02:41:59;;;;;;;3.08;1.80;;;;;;;17.36;21.26;99345.97;5169390;27;20023;-73
2022/03/06 02:44:25;;;;;;;2.38;1.98;;;;;;;17.33;21.65;99339.13;5169123;27;20094;-73
2022/03/06 02:46:51;;;;;;;3.53;1.90;;;;;;;17.29;21.55;99336.97;5163412;27;20113;-72
2022/03/06 02:49:20;;;;;;;3.08;2.00;;;;;;;17.32;21.03;99334.78;5154226;27;20037;-74
2022/03/06 02:51:45;;;;;;;3.45;2.35;;;;;;;17.33;21.54;99339.13;5117451;27;20049;-72
2022/03/06 02:54:13;;;;;;;2.75;1.80;;;;;;;17.35;21.23;99339.81;5135773;27;20501;-73
2022/03/06 02:56:40;;;;;;;4.18;2.20;;;;;;;17.39;21.11;99342.97;5135671;27;20094;-73
2022/03/06 02:59:06;;;;;;;3.10;1.85;;;;;;;17.42;21.20;99341.81;5152308;27;20030;-73
2022/03/06 03:01:37;;;;;;;3.35;2.25;;;;;;;17.42;21.03;99337.28;5155146;27;20029;-74
2022/03/06 03:04:04;;;;;;;4.53;2.38;;;;;;;17.43;21.08;99346.97;5155036;27;20022;-73
2022/03/06 03:06:30;;;;;;;3.92;2.38;;;;;;;17.43;21.22;99340.78;5152405;27;20026;-73
2022/03/06 03:08:56;;;;;;;3.88;2.47;;;;;;;17.44;21.20;99335.28;5155128;27;20026;-73
2022/03/06 03:11:22;;;;;;;5.05;2.15;;;;;;;17.45;21.14;99333.44;5151891;27;20034;-74
2022/03/06 03:13:47;;;;;;;3.83;2.10;;;;;;;17.47;21.01;99331.41;5135227;27;20027;-73
2022/03/06 03:16:13;;;;;;;3.00;2.20;;;;;;;17.48;21.49;99328.59;5139112;27;20027;-73
2022/03/06 03:18:38;;;;;;;2.55;1.90;;;;;;;17.48;21.31;99325.91;5139131;27;20033;-73
2022/03/06 03:21:04;;;;;;;3.42;2.30;;;;;;;17.49;21.04;99319.56;5135449;27;20038;-75
2022/03/06 03:23:29;;;;;;;4.05;2.35;;;;;;;17.52;21.18;99321.06;5135069;27;20027;-72
2022/03/06 03:25:55;;;;;;;3.47;2.58;;;;;;;17.56;20.87;99325.06;5135359;27;20026;-74
2022/03/06 03:28:20;;;;;;;3.65;2.13;;;;;;;17.55;21.17;99310.00;5142915;27;20031;-73
2022/03/06 03:30:46;;;;;;;3.78;2.15;;;;;;;17.56;21.34;99317.03;5154602;27;20026;-71
2022/03/06 03:33:11;;;;;;;3.30;2.10;;;;;;;17.57;21.29;99313.34;5154287;27;20027;-73
2022/03/06 03:35:37;;;;;;;4.00;2.25;;;;;;;17.58;21.09;99304.28;5139551;27;20027;-73
2022/03/06 03:38:02;;;;;;;4.05;2.70;;;;;;;17.59;20.90;99303.28;5144681;27;20046;-71
2022/03/06 03:40:28;;;;;;;3.50;2.58;;;;;;;17.62;21.17;99294.09;5154316;27;20040;-72
2022/03/06 03:42:53;;;;;;;3.17;2.28;;;;;;;17.64;20.95;99292.09;5154568;27;20042;-74
2022/03/06 03:45:19;;;;;;;4.72;2.20;;;;;;;17.61;21.17;99289.75;5154336;27;20023;-72
2022/03/06 03:47:45;;;;;;;5.65;2.47;;;;;;;17.66;21.10;99300.75;5151751;27;20462;-73
2022/03/06 03:50:10;;;;;;;3.10;2.28;;;;;;;17.67;21.14;99289.91;5135392;27;20030;-73
2022/03/06 03:52:36;;;;;;;4.55;2.72;;;;;;;17.69;21.12;99290.56;5119882;27;20021;-73
2022/03/06 03:55:02;;;;;;;4.22;3.00;;;;;;;17.69;20.96;99285.22;5153812;27;20512;-74
2022/03/06 03:57:28;;;;;;;5.13;2.58;;;;;;;17.73;21.03;99279.50;5153706;27;20030;-73
2022/03/06 03:59:53;;;;;;;3.65;2.50;;;;;;;17.77;21.13;99280.81;5152341;27;20450;-74
2022/03/06 04:02:19;;;;;;;6.10;2.78;;;;;;;17.78;20.90;99285.16;5150197;27;20145;-74
2022/03/06 04:04:44;;;;;;;3.67;2.45;;;;;;;17.77;20.81;99278.16;5150499;27;20030;-74
2022/03/06 04:07:10;;;;;;;4.30;3.00;;;;;;;17.74;21.09;99279.34;5138291;27;20018;-73
2022/03/06 04:09:35;;;;;;;3.88;2.50;;;;;;;17.78;20.77;99280.66;5152523;27;20027;-73
2022/03/06 04:12:01;;;;;;;4.82;2.90;;;;;;;17.81;20.99;99284.81;5153874;27;20037;-74
2022/03/06 04:14:26;;;;;;;4.28;2.47;;;;;;;17.79;21.07;99276.94;5153544;27;20166;-74
2022/03/06 04:16:52;;;;;;;3.28;2.13;;;;;;;17.83;20.95;99274.78;5152967;27;20023;-74
2022/03/06 04:19:17;;;;;;;4.25;2.78;;;;;;;17.84;21.02;99276.47;5153723;27;20043;-74
2022/03/06 04:21:43;;;;;;;3.45;2.53;;;;;;;17.83;21.11;99280.97;5155538;27;20030;-73
2022/03/06 04:24:08;;;;;;;3.83;2.58;;;;;;;17.86;20.82;99279.78;5149613;27;20114;-74
2022/03/06 04:26:35;;;;;;;2.78;2.03;;;;;;;17.87;20.86;99277.94;5138680;27;20052;-74
2022/03/06 04:29:02;;;;;;;4.38;2.28;;;;;;;17.88;20.95;99267.06;5131598;27;20042;-73
2022/03/06 04:31:28;;;;;;;3.95;2.85;;;;;;;17.87;21.09;99265.38;5154945;27;20075;-73
2022/03/06 04:33:53;;;;;;;3.83;2.67;;;;;;;17.89;21.15;99275.94;5153941;27;20027;-74
2022/03/06 04:36:19;;;;;;;4.32;2.80;;;;;;;17.84;21.02;99271.91;5154763;27;20051;-73
2022/03/06 04:38:45;;;;;;;3.53;2.08;;;;;;;17.88;20.90;99260.88;5154568;27;20030;-73
2022/03/06 04:41:10;;;;;;;4.30;2.67;;;;;;;17.82;21.00;99263.22;5154921;27;20122;-73
2022/03/06 04:43:36;;;;;;;3.63;2.13;;;;;;;17.80;21.12;99267.91;5154093;27;20105;-74
2022/03/06 04:46:02;;;;;;;3.33;2.10;;;;;;;17.86;20.96;99263.75;5154718;27;20083;-74
2022/03/06 04:48:28;;;;;;;4.03;2.13;;;;;;;17.89;20.92;99268.72;5154069;27;20043;-75
2022/03/06 04:50:54;;;;;;;4.38;2.40;;;;;;;17.90;21.04;99265.03;5147973;27;20062;-74
2022/03/06 04:53:19;;;;;;;2.85;2.10;;;;;;;17.90;20.79;99266.88;5146017;27;20390;-74
2022/03/06 04:55:45;;;;;;;5.13;2.55;;;;;;;17.91;20.75;99263.22;5154476;27;20045;-74
2022/03/06 04:58:10;;;;;;;3.45;2.33;;;;;;;17.92;20.49;99256.84;5152490;27;20099;-74
2022/03/06 05:00:36;;;;;;;3.15;2.03;;;;;;;17.93;20.77;99258.53;5153356;27;20034;-72
2022/03/06 05:03:02;;;;;;;2.47;1.90;;;;;;;17.91;20.89;99257.84;5155099;27;20113;-75
2022/03/06 05:05:27;;;;;;;4.15;2.50;;;;;;;17.96;20.49;99252.78;5154813;27;20030;-72
2022/03/06 05:07:53;;;;;;;3.33;2.63;;;;;;;18.01;20.56;99263.03;5153160;27;20291;-73
2022/03/06 05:10:18;;;;;;;5.13;2.22;;;;;;;18.06;20.47;99252.59;5153989;27;20041;-73
2022/03/06 05:12:44;;;;;;;4.03;2.20;;;;;;;18.08;20.42;99253.25;5154064;27;20034;-73
2022/03/06 05:15:12;;;;;;;4.03;2.65;;;;;;;18.13;20.49;99249.03;5133933;27;20027;-73
2022/03/06 05:17:39;;;;;;;5.65;2.75;;;;;;;18.12;20.44;99246.56;5140716;27;20038;-72
2022/03/06 05:20:06;;;;;;;5.55;2.88;;;;;;;18.16;20.77;99242.50;5154183;27;20030;-71
2022/03/06 05:22:31;;;;;;;3.08;2.50;;;;;;;18.19;20.71;99235.97;5153397;27;20034;-75
2022/03/06 05:24:58;;;;;;;5.40;2.70;;;;;;;18.19;20.64;99239.47;5154178;27;20167;-73
2022/03/06 05:27:25;;;;;;;4.45;2.33;;;;;;;18.20;20.75;99238.44;5150449;27;20181;-72
2022/03/06 05:29:51;;;;;;;3.55;2.42;;;;;;;18.21;20.64;99242.81;5151370;27;20054;-73
2022/03/06 05:32:16;;;;;;;6.72;2.70;;;;;;;18.24;20.89;99239.78;5154735;27;20122;-73
2022/03/06 05:34:42;;;;;;;4.80;2.60;;;;;;;18.26;20.97;99251.16;5154400;27;20515;-73
2022/03/06 05:37:07;;;;;;;4.18;2.60;;;;;;;18.27;21.11;99244.78;5152930;27;20051;-73
2022/03/06 05:39:33;;;;;;;4.32;2.22;;;;;;;18.32;21.33;99240.72;5152131;27;20121;-73
2022/03/06 05:41:58;;;;;;;4.68;2.70;;;;;;;18.36;21.03;99231.31;5137597;27;20022;-73
2022/03/06 05:44:24;;;;;;;4.45;2.40;;;;;;;18.41;21.13;99234.28;5152154;27;20129;-73
2022/03/06 05:46:50;;;;;;;3.97;2.80;;;;;;;18.41;21.02;99226.25;5154107;27;20023;-71
2022/03/06 05:49:16;;;;;;;4.25;2.45;;;;;;;18.43;21.14;99226.91;5153114;27;20480;-74
2022/03/06 05:51:42;;;;;;;5.18;3.03;;;;;;;18.43;21.20;99222.38;5150924;27;20037;-72
2022/03/06 05:54:08;;;;;;;4.18;2.35;;;;;;;18.43;21.20;99221.56;5151533;27;20171;-72
2022/03/06 05:56:35;;;;;;;6.70;2.53;;;;;;;18.45;21.22;99223.03;5150187;27;20042;-74
2022/03/06 05:59:00;;;;;;;5.40;2.83;;;;;;;18.45;21.47;99222.22;5147208;27;20041;-73
2022/03/06 06:01:29;;;;;;;4.43;2.58;;;;;;;18.47;21.28;99222.03;5141227;27;20027;-73
2022/03/06 06:03:56;;;;;;;6.03;2.47;;;;;;;18.47;21.19;99219.34;5148315;27;20219;-71
2022/03/06 06:06:22;;;;;;;7.10;2.60;;;;;;;18.47;21.38;99216.66;5151289;27;20034;-73
2022/03/06 06:08:47;;;;;;;4.50;2.75;;;;;;;18.50;21.15;99221.66;5134052;27;20031;-70
2022/03/06 06:11:13;;;;;;;3.47;2.30;;;;;;;18.49;21.24;99212.78;5150938;27;20421;-73
2022/03/06 06:13:38;;;;;;;4.47;2.70;;;;;;;18.51;21.19;99218.81;5151621;27;20041;-72
2022/03/06 06:16:04;;;;;;;4.38;2.47;;;;;;;18.52;21.32;99216.97;5152694;27;20041;-72
2022/03/06 06:18:31;;;;;;;3.38;2.22;;;;;;;18.52;21.44;99214.28;5152555;27;20084;-75
2022/03/06 06:20:59;;;;;;;4.28;2.75;;;;;;;18.55;21.13;99213.91;5144574;27;20082;-72
2022/03/06 06:23:25;;;;;;;3.90;2.20;;;;;;;18.57;21.19;99217.25;5154019;27;20038;-71
2022/03/06 06:25:50;;;;;;;5.32;2.35;;;;;;;18.59;21.13;99218.75;5147210;27;20039;-71
2022/03/06 06:28:16;;;;;;;4.70;2.65;;;;;;;18.58;21.15;99224.28;5152989;27;20030;-72
2022/03/06 06:30:42;;;;;;;5.28;2.40;;;;;;;18.58;21.22;99219.75;5150484;27;20039;-73
2022/03/06 06:33:07;;;;;;;6.07;2.72;;;;;;;18.59;21.02;99213.38;5152112;27;20034;-73
2022/03/06 06:35:34;;;;;;;7.15;3.00;;;;;;;18.60;21.29;99216.88;5155292;27;20061;-73
2022/03/06 06:38:03;;;;;;;4.85;2.63;;;;;;;18.61;21.01;99211.34;5155032;27;20083;-73
2022/03/06 06:40:29;;;;;;;4.60;2.65;;;;;;;18.61;21.12;99205.16;5155400;27;20065;-72
2022/03/06 06:42:54;;;;;;;8.02;2.90;;;;;;;18.63;20.87;99203.13;5138885;27;20035;-73
2022/03/06 06:45:20;;;;;;;5.28;3.00;;;;;;;18.65;20.85;99205.63;5136030;27;20127;-72
2022/03/06 06:47:46;;;;;;;4.30;2.33;;;;;;;18.67;20.95;99206.28;5148721;27;20037;-73
2022/03/06 06:50:11;;;;;;;6.57;3.00;;;;;;;18.64;20.79;99204.81;5148494;27;20039;-72
2022/03/06 06:52:37;;;;;;;6.88;2.58;;;;;;;18.65;20.81;99192.22;5145470;27;20039;-73
2022/03/06 06:55:04;;;;;;;3.70;2.25;;;;;;;18.68;20.75;99199.91;5143719;27;20043;-72
2022/03/06 06:57:30;;;;;;;5.15;2.17;;;;;;;18.68;20.62;99189.19;5156283;27;20058;-73
2022/03/06 06:59:56;;;;;;;6.13;2.67;;;;;;;18.69;20.58;99182.81;5155111;27;20061;-73
2022/03/06 07:02:22;;;;;;;3.67;2.10;;;;;;;18.72;20.66;99185.13;5156429;27;20050;-72
2022/03/06 07:04:48;;;;;;;6.53;2.08;;;;;;;18.73;20.65;99192.16;5149648;27;20034;-74
2022/03/06 07:07:13;;;;;;;8.32;2.20;;;;;;;18.72;20.63;99188.63;5142151;27;20474;-73
2022/03/06 07:09:39;;;;;;;4.40;2.13;;;;;;;18.73;20.62;99190.31;5117575;27;20073;-73
2022/03/06 07:12:06;;;;;;;4.95;2.08;;;;;;;18.75;20.49;99190.09;5142304;27;20086;-72
2022/03/06 07:14:33;;;;;;;2.97;1.85;;;;;;;18.78;20.27;99197.78;5141760;27;20054;-73
2022/03/06 07:16:59;;;;;;;3.60;2.25;;;;;;;18.72;20.47;99183.28;5155014;27;20065;-73
2022/03/06 07:19:25;;;;;;;4.15;1.90;;;;;;;18.78;20.53;99175.53;5136150;27;20114;-72
2022/03/06 07:21:50;;;;;;;4.85;2.13;;;;;;;18.79;20.46;99180.69;5152598;27;20121;-74
2022/03/06 07:24:16;;;;;;;4.25;2.42;;;;;;;18.80;20.29;99177.00;5155996;27;20042;-73
2022/03/06 07:26:42;;;;;;;3.67;2.13;;;;;;;18.80;20.19;99174.31;5156679;27;20073;-73
2022/03/06 07:29:08;;;;;;;4.50;2.65;;;;;;;18.80;20.19;99178.88;5156042;27;20517;-73
2022/03/06 07:31:33;;;;;;;3.97;2.17;;;;;;;18.79;20.18;99171.84;5155758;27;20095;-72
2022/03/06 07:34:00;;;;;;;3.42;2.30;;;;;;;18.79;20.25;99171.84;5154682;27;20496;-72
2022/03/06 07:36:26;;;;;;;4.85;2.22;;;;;;;18.79;20.19;99172.66;5154921;27;20141;-73
2022/03/06 07:38:51;;;;;;;3.85;2.00;;;;;;;18.79;20.23;99172.66;5153745;27;20177;-73
2022/03/06 07:41:17;;;;;;;3.85;1.88;;;;;;;18.81;20.24;99167.13;5154301;27;20081;-74
2022/03/06 07:43:43;;;;;;;3.35;2.30;;;;;;;18.84;20.21;99172.94;5154109;27;20045;-72
2022/03/06 07:46:09;;;;;;;3.78;1.75;;;;;;;18.83;20.28;99162.38;5154879;27;20054;-73
2022/03/06 07:48:34;;;;;;;3.33;1.83;;;;;;;18.83;20.24;99171.28;5137078;27;20045;-74
2022/03/06 07:51:00;;;;;;;6.18;2.17;;;;;;;18.85;20.14;99165.72;5116587;27;20046;-71
2022/03/06 07:53:25;;;;;;;2.97;1.55;;;;;;;18.87;20.18;99159.19;5150121;27;20030;-72
2022/03/06 07:55:51;;;;;;;3.22;1.60;;;;;;;18.88;20.10;99165.34;5155727;27;20118;-73
2022/03/06 07:58:17;;;;;;;3.83;1.90;;;;;;;18.91;20.00;99159.63;5154118;27;20031;-72
2022/03/06 08:00:43;;;;;;;4.97;1.90;;;;;;;18.91;20.29;99152.41;5155779;27;20073;-74
2022/03/06 08:03:08;;;;;;;3.60;1.95;;;;;;;18.91;20.16;99149.72;5153701;27;20454;-74
2022/03/06 08:05:34;;;;;;;6.30;1.70;;;;;;;18.95;20.29;99152.09;5154864;27;20043;-73
2022/03/06 08:07:59;;;;;;;7.05;2.05;;;;;;;18.97;20.25;99145.50;5151100;27;20058;-73
2022/03/06 08:10:25;;;;;;;5.22;1.88;;;;;;;18.99;20.40;99137.28;5155607;27;20034;-72
2022/03/06 08:12:50;;;;;;;4.28;2.15;;;;;;;19.02;20.27;99134.25;5154606;27;20033;-74
2022/03/06 08:15:16;;;;;;;4.03;1.85;;;;;;;19.01;20.13;99135.25;5146418;27;20513;-74
2022/03/06 08:17:42;;;;;;;3.60;1.73;;;;;;;19.05;20.16;99128.50;5143306;27;20031;-74
2022/03/06 08:20:08;;;;;;;4.10;2.20;;;;;;;19.02;20.06;99129.72;5143945;27;20119;-73
2022/03/06 08:22:35;;;;;;;6.85;2.28;;;;;;;19.01;20.12;99120.00;5154725;27;20405;-74
2022/03/06 08:25:01;;;;;;;6.07;1.70;;;;;;;19.04;20.27;99114.28;5155597;27;20049;-74
2022/03/06 08:27:27;;;;;;;3.05;1.83;;;;;;;19.04;20.07;99110.78;5153521;27;20109;-74
2022/03/06 08:29:52;;;;;;;5.07;2.05;;;;;;;19.01;20.16;99106.59;5134403;27;20168;-73
2022/03/06 08:32:18;;;;;;;3.88;2.42;;;;;;;18.93;20.16;99106.66;5134874;27;20439;-72
2022/03/06 08:34:44;;;;;;;5.22;2.42;;;;;;;18.90;20.17;99099.81;5137667;27;20038;-71
2022/03/06 08:37:10;;;;;;;4.78;2.15;;;;;;;18.94;20.35;99102.13;5147894;27;20050;-73
2022/03/06 08:39:36;;;;;;;7.38;1.92;;;;;;;18.95;20.64;99082.38;5151000;27;20038;-72
2022/03/06 08:42:02;;;;;;;3.17;1.77;;;;;;;18.96;20.41;99092.09;5153452;27;20564;-73
2022/03/06 08:44:27;;;;;;;5.18;1.83;;;;;;;18.97;20.44;99083.84;5154417;27;20537;-71
2022/03/06 08:46:53;;;;;;;4.10;1.75;;;;;;;18.99;20.54;99081.00;5154523;27;20033;-73
2022/03/06 08:49:18;;;;;;;4.85;1.92;;;;;;;18.98;20.31;99076.66;5153876;27;20062;-71
2022/03/06 08:51:44;;;;;;;3.45;1.88;;;;;;;19.00;20.83;99078.13;5153909;27;20046;-72
2022/03/06 08:54:10;;;;;;;3.90;2.17;;;;;;;19.03;20.56;99066.19;5154397;27;20030;-72
2022/03/06 08:56:35;;;;;;;5.55;2.13;;;;;;;19.02;20.53;99064.53;5149369;27;20031;-72
2022/03/06 08:59:01;;;;;;;2.72;1.73;;;;;;;18.98;20.50;99065.94;5138268;27;20030;-72
2022/03/06 09:01:27;;;;;;;5.03;2.42;;;;;;;18.98;20.46;99047.97;5154349;27;20168;-74
2022/03/06 09:03:52;;;;;;;3.72;1.58;;;;;;;18.97;20.40;99064.25;5152895;27;20034;-73
2022/03/06 09:06:18;;;;;;;4.05;1.67;;;;;;;18.92;20.57;99060.25;5152810;27;20030;-73
2022/03/06 09:08:44;;;;;;;6.15;2.00;;;;;;;18.91;20.57;99058.59;5152436;27;20030;-73
2022/03/06 09:11:10;;;;;;;4.05;1.80;;;;;;;18.89;20.50;99054.44;5151744;27;20058;-74
2022/03/06 09:13:35;;;;;;;6.10;1.95;;;;;;;18.91;20.31;99052.41;5150133;27;20057;-74
2022/03/06 09:16:03;;;;;;;4.15;1.90;;;;;;;18.92;20.67;99036.13;5152641;27;20061;-73
2022/03/06 09:18:29;;;;;;;5.65;1.77;;;;;;;18.96;20.63;99023.22;5140341;27;20052;-72
2022/03/06 09:20:55;;;;;;;3.15;1.45;;;;;;;19.01;20.86;99030.69;5132994;27;20038;-74
2022/03/06 09:23:21;;;;;;;4.18;2.38;;;;;;;19.01;20.53;99025.34;5143970;27;20030;-74
2022/03/06 09:25:46;;;;;;;6.53;2.45;;;;;;;19.02;20.34;99025.13;5152719;27;20473;-74
2022/03/06 09:28:12;;;;;;;6.07;2.65;;;;;;;19.03;20.40;99007.22;5144478;27;20420;-73
2022/03/06 09:30:37;;;;;;;5.15;2.30;;;;;;;19.08;20.20;99026.22;5133069;27;20030;-74
2022/03/06 09:33:03;;;;;;;9.27;3.22;;;;;;;19.10;20.80;99013.47;5120504;27;20548;-73
2022/03/06 09:35:29;;;;;;;6.38;2.53;;;;;;;19.12;20.65;99008.75;5132630;27;20505;-73
2022/03/06 09:37:54;;;;;;;6.15;3.25;;;;;;;19.13;20.52;99006.88;5144535;27;20047;-73
2022/03/06 09:40:20;;;;;;;6.38;3.72;;;;;;;19.13;20.51;99005.06;5152311;27;20031;-73
2022/03/06 09:42:46;;;;;;;8.32;3.40;;;;;;;19.14;20.38;99004.03;5129433;27;20130;-74
2022/03/06 09:45:14;;;;;;;6.78;4.00;;;;;;;19.15;20.32;99005.69;5152047;27;20022;-74
2022/03/06 09:47:42;;;;;;;5.53;3.10;;;;;;;19.16;20.37;99003.84;5133677;27;20073;-72
2022/03/06 09:50:11;;;;;;;9.02;3.90;;;;;;;19.22;20.74;99000.41;5142932;27;20494;-73
2022/03/06 09:52:37;;;;;;;5.00;2.95;;;;;;;19.27;20.86;98986.41;5133338;27;20505;-73
2022/03/06 09:55:04;;;;;;;5.80;2.65;;;;;;;19.31;20.59;98990.38;5132679;27;20035;-74
2022/03/06 09:57:29;;;;;;;4.30;2.10;;;;;;;19.31;20.46;98977.78;5138220;27;20322;-71
2022/03/06 09:59:55;;;;;;;6.45;2.38;;;;;;;19.36;20.54;98990.63;5155406;27;20031;-74
2022/03/06 10:02:21;;;;;;;4.85;2.22;;;;;;;19.39;20.56;98981.38;5156080;27;20037;-74
2022/03/06 10:04:46;;;;;;;7.25;3.50;;;;;;;19.38;20.83;98969.81;5156367;27;20037;-75
2022/03/06 10:07:17;;;;;;;4.93;2.42;;;;;;;19.38;20.81;98972.47;5150853;27;20031;-75
2022/03/06 10:09:54;;;;;;;3.28;2.33;;;;;;;19.40;20.79;98977.69;5139099;27;20035;-74
2022/03/06 10:12:31;;;;;;;3.83;2.58;;;;;;;19.41;20.84;98973.97;5119560;27;20147;-74
2022/03/06 10:14:59;;;;;;;5.72;3.53;;;;;;;19.39;20.77;98957.25;5155259;27;20025;-73
2022/03/06 10:17:29;;;;;;;5.20;1.95;;;;;;;19.40;20.48;98959.72;5155644;27;20031;-73
2022/03/06 10:20:10;;;;;;;2.97;1.75;;;;;;;19.35;20.78;98962.13;5156245;27;20027;-73
2022/03/06 10:22:38;;;;;;;3.95;1.65;;;;;;;19.39;20.36;98965.28;5154716;27;20037;-74
2022/03/06 10:25:08;;;;;;;2.80;1.63;;;;;;;19.39;20.50;98950.00;5140625;27;20038;-74
2022/03/06 10:27:46;;;;;;;6.10;2.25;;;;;;;19.40;21.10;98964.25;5154566;27;20564;-73
2022/03/06 10:30:27;;;;;;;3.08;1.65;;;;;;;19.41;20.90;98949.84;5151478;27;20027;-73
2022/03/06 10:32:54;;;;;;;3.70;1.70;;;;;;;19.42;21.22;98946.09;5136204;27;20545;-74
2022/03/06 10:35:44;;;;;;;2.80;1.90;;;;;;;19.45;20.94;98945.72;5117588;27;20027;-74
2022/03/06 10:38:36;;;;;;;3.40;1.90;;;;;;;19.46;21.12;98934.81;5150418;27;20045;-74
2022/03/06 10:41:14;;;;;;;5.50;1.42;;;;;;;19.45;20.76;98925.09;5133199;27;20163;-72
2022/03/06 10:43:41;;;;;;;4.60;1.60;;;;;;;19.47;20.25;98912.31;5141521;27;20175;-73
2022/03/06 10:46:10;;;;;;;4.43;1.48;;;;;;;19.49;20.53;98912.94;5136870;27;20042;-74
2022/03/06 10:48:36;;;;;;;2.75;1.50;;;;;;;19.50;20.52;98900.38;5135642;27;20034;-73
2022/03/06 10:51:05;;;;;;;2.50;1.48;;;;;;;19.54;20.83;98901.66;5117349;27;20458;-72
2022/03/06 10:53:31;;;;;;;2.13;1.15;;;;;;;19.59;20.92;98904.56;5137056;27;20038;-72
2022/03/06 10:56:15;;;;;;;5.90;1.50;;;;;;;19.61;21.15;98891.78;5141561;27;20030;-72
2022/03/06 10:58:42;;;;;;;4.47;1.70;;;;;;;19.64;21.03;98890.53;5137834;27;20130;-73
2022/03/06 11:01:08;;;;;;;3.33;1.23;;;;;;;19.69;20.97;98900.72;5143551;27;20444;-75
2022/03/06 11:03:35;;;;;;;3.13;1.10;;;;;;;19.67;20.63;98891.00;5151101;27;20393;-73
2022/03/06 11:06:07;;;;;;;2.15;1.45;;;;;;;19.72;20.56;98881.50;5154941;27;20713;-75
2022/03/06 11:08:34;;;;;;;4.20;1.40;;;;;;;19.72;21.27;98873.47;5136442;27;20065;-72
2022/03/06 11:11:00;;;;;;;3.88;1.17;;;;;;;19.77;20.80;98879.06;5137557;27;20038;-73
2022/03/06 11:13:29;;;;;;;7.50;1.48;;;;;;;19.80;20.88;98876.00;5146375;27;20035;-74
2022/03/06 11:15:56;;;;;;;4.80;1.30;;;;;;;19.83;21.11;98875.63;5135590;27;20029;-74
2022/03/06 11:18:24;;;;;;;2.63;1.30;;;;;;;19.84;20.99;98869.22;5135304;27;20428;-72
2022/03/06 11:20:52;;;;;;;2.63;1.50;;;;;;;19.84;21.19;98853.13;5135185;27;20027;-73
2022/03/06 11:23:33;;;;;;;2.40;1.27;;;;;;;19.82;21.08;98855.97;5141820;27;20087;-72
2022/03/06 11:26:04;;;;;;;;;;;;;;;19.74;21.56;98852.63;5140372;27;20095;-72
2022/03/06 11:29:08;;;;;;;2.00;0.98;;;;;;;19.69;21.07;98834.44;5136447;27;19922;-72
2022/03/06 11:31:55;;;;;;;2.00;1.33;;;;;;;19.72;21.02;98836.72;5135434;27;20034;-73
2022/03/06 11:34:33;;;;;;;3.10;1.40;;;;;;;19.69;20.96;98826.38;5116428;27;20375;-75
2022/03/06 11:37:04;;;;;;;2.78;1.20;;;;;;;19.67;21.08;98828.44;5153387;27;20102;-73
2022/03/06 11:39:29;;;;;;;2.25;1.40;;;;;;;19.66;20.85;98819.56;5153116;27;20099;-75
2022/03/06 11:42:00;;;;;;;2.08;1.10;;;;;;;19.65;20.94;98823.28;5153456;27;20031;-67
2022/03/06 11:44:49;;;;;;;3.92;1.15;;;;;;;19.69;20.94;98817.50;5155630;27;20062;-71